Time;durP1;ratioP1;P1;durP2;ratioP2;P2;SDS_P1;SDS_P2;PMS_P1;PMS_P2;Temp;Humidity;BMP_temperature;BMP_pressure;BME280_temperature;BME280_humidity;BME280_pressure;Samples;Min_cycle;Max_cycle;Signal;HPM_P1;HPM_P2
2022/08/11 00:00:05;;;;;;;5.60;2.40;;;;;;;20.28;46.36;99732.82;237334;1196;140119;-59
2022/08/11 00:05:28;;;;;;;5.40;2.00;;;;;;;20.22;46.58;99731.27;237617;1195;140966;-59
2022/08/11 00:10:32;;;;;;;3.80;2.30;;;;;;;20.13;46.78;99732.26;237522;1195;140082;-59
2022/08/11 00:15:43;;;;;;;3.40;2.20;;;;;;;20.03;46.94;99732.77;237363;1196;139082;-60
2022/08/11 00:20:50;;;;;;;5.10;2.40;;;;;;;19.93;47.00;99730.58;237400;1195;140309;-60
2022/08/11 00:25:54;;;;;;;4.40;2.10;;;;;;;19.85;47.21;99731.30;237168;1196;139019;-60
2022/08/11 00:31:01;;;;;;;6.30;2.40;;;;;;;19.80;47.29;99735.21;237122;1196;139069;-58
2022/08/11 00:36:08;;;;;;;3.90;2.30;;;;;;;19.72;47.54;99731.95;237413;1195;139864;-57
2022/08/11 00:41:14;;;;;;;;;;;;;;;19.66;47.66;99733.57;237292;1195;139228;-58
2022/08/11 00:46:36;;;;;;;5.50;2.30;;;;;;;19.57;47.84;99735.77;237456;1196;126239;-59
2022/08/11 00:52:09;;;;;;;3.40;2.10;;;;;;;19.50;47.99;99732.83;237153;1196;140495;-57
2022/08/11 00:57:30;;;;;;;5.10;2.10;;;;;;;19.43;48.25;99732.71;237233;1196;139309;-58
2022/08/11 01:02:52;;;;;;;10.20;2.70;;;;;;;19.34;48.30;99733.81;237438;1195;139140;-59
2022/08/11 01:08:07;;;;;;;3.10;2.30;;;;;;;19.29;48.52;99732.54;237343;1195;139570;-59
2022/08/11 01:13:42;;;;;;;7.30;2.90;;;;;;;19.22;48.70;99728.46;237324;1195;139748;-58
2022/08/11 01:19:06;;;;;;;2.90;2.40;;;;;;;19.12;48.99;99724.59;237187;1196;139767;-58
2022/08/11 01:24:46;;;;;;;3.90;2.50;;;;;;;19.06;49.27;99724.95;237198;1196;139446;-57
2022/08/11 01:30:17;;;;;;;3.90;2.50;;;;;;;19.01;49.40;99730.55;237467;1195;139036;-56
2022/08/11 01:36:10;;;;;;;8.60;2.40;;;;;;;18.98;49.54;99725.45;237396;1195;140038;-57
2022/08/11 01:41:25;;;;;;;5.90;2.50;;;;;;;18.94;49.69;99725.95;237102;1196;139043;-58
2022/08/11 01:46:55;;;;;;;7.90;2.70;;;;;;;18.91;49.94;99722.23;237114;1195;139969;-59
2022/08/11 01:52:07;;;;;;;5.40;2.80;;;;;;;18.91;50.06;99725.31;237054;1196;139804;-58
2022/08/11 01:57:22;;;;;;;6.90;2.80;;;;;;;18.87;50.23;99729.80;237204;1195;143084;-58
2022/08/11 02:02:46;;;;;;;5.70;2.60;;;;;;;18.82;50.16;99723.20;237263;1195;139970;-58
2022/08/11 02:08:17;;;;;;;5.30;2.70;;;;;;;18.77;50.32;99723.62;237328;1195;140435;-58
2022/08/11 02:13:35;;;;;;;4.10;2.20;;;;;;;18.73;50.57;99716.46;237301;1195;139944;-57
2022/08/11 02:24:18;;;;;;;6.00;2.70;;;;;;;18.76;50.79;99714.05;237100;1195;140110;-59
2022/08/11 02:29:31;;;;;;;8.50;2.70;;;;;;;18.78;50.84;99720.02;237475;1195;139387;-59
2022/08/11 02:34:43;;;;;;;3.60;2.30;;;;;;;18.84;50.83;99715.86;237316;1195;139289;-58
2022/08/11 02:40:16;;;;;;;8.40;2.70;;;;;;;18.87;50.83;99717.79;237077;1196;139883;-58
2022/08/11 02:45:53;;;;;;;8.20;3.50;;;;;;;18.88;50.84;99721.42;237206;1196;139884;-58
2022/08/11 02:51:34;;;;;;;8.50;3.30;;;;;;;18.85;50.93;99719.54;237259;1196;139873;-58
2022/08/11 02:56:37;;;;;;;7.50;3.10;;;;;;;18.83;51.15;99716.34;237007;1195;140715;-57
2022/08/11 03:02:15;;;;;;;8.20;3.10;;;;;;;18.77;51.13;99722.05;237292;1195;140871;-58
2022/08/11 03:07:30;;;;;;;7.50;2.80;;;;;;;18.70;51.23;99719.95;237159;1196;140084;-59
2022/08/11 03:18:30;;;;;;;8.90;4.40;;;;;;;18.67;51.54;99721.27;237249;1195;140590;-59
2022/08/11 03:23:40;;;;;;;43.40;29.80;;;;;;;18.75;51.87;99719.85;237414;1195;140054;-59
2022/08/11 03:29:23;;;;;;;11.20;6.60;;;;;;;18.90;51.87;99724.69;236998;1196;140311;-56
2022/08/11 03:34:30;;;;;;;16.50;12.40;;;;;;;19.09;51.95;99726.50;236972;1196;139532;-63
2022/08/11 03:39:53;;;;;;;192.50;150.50;;;;;;;19.58;52.59;99726.89;237181;1195;141804;-63
2022/08/11 03:45:19;;;;;;;15.90;10.50;;;;;;;19.82;51.43;99725.26;237131;1195;140492;-59
2022/08/11 03:50:23;;;;;;;150.60;124.00;;;;;;;19.80;50.82;99724.75;237308;1194;140056;-59
2022/08/11 03:56:04;;;;;;;13.80;7.10;;;;;;;19.70;50.55;99721.72;237168;1196;139879;-59
2022/08/11 04:01:52;;;;;;;7.00;3.30;;;;;;;19.53;50.50;99721.23;237227;1196;139919;-62
2022/08/11 04:07:34;;;;;;;4.20;2.80;;;;;;;19.37;50.68;99713.80;237212;1195;139032;-60
2022/08/11 04:12:45;;;;;;;5.30;3.70;;;;;;;19.28;50.85;99713.83;237165;1195;139238;-62
2022/08/11 04:18:05;;;;;;;6.70;3.20;;;;;;;19.28;51.12;99710.98;237411;1195;139959;-58
2022/08/11 04:23:31;;;;;;;23.10;18.90;;;;;;;19.38;51.51;99710.96;237350;1196;139384;-55
2022/08/11 04:29:14;;;;;;;6.80;4.20;;;;;;;19.64;51.41;99715.41;237123;1195;140167;-57
2022/08/11 04:34:40;;;;;;;7.90;3.10;;;;;;;19.69;51.12;99717.83;237404;1195;140356;-56
2022/08/11 04:39:52;;;;;;;14.90;5.80;;;;;;;19.73;51.06;99727.05;237172;1195;139695;-56
2022/08/11 04:45:23;;;;;;;10.50;5.50;;;;;;;19.81;50.96;99728.29;236458;1196;139741;-59
2022/08/11 05:02:34;;;;;;;7.40;3.50;;;;;;;20.13;50.84;99738.77;237154;1196;140066;-57
2022/08/11 05:07:51;;;;;;;8.70;3.60;;;;;;;20.23;50.88;99736.58;237218;1196;139001;-58
2022/08/11 05:27:09;;;;;;;7.20;3.20;;;;;;;20.33;50.75;99739.02;237396;1195;139350;-59
2022/08/11 05:34:59;;;;;;;6.50;2.60;;;;;;;20.56;50.65;99751.11;237376;1195;139708;-58
2022/08/11 05:56:33;;;;;;;;;;;;;;;20.83;50.82;99750.39;237324;1195;141998;-59
2022/08/11 06:01:37;;;;;;;9.40;2.70;;;;;;;20.86;50.70;99756.02;237399;1195;126072;-59
2022/08/11 06:07:02;;;;;;;7.40;2.90;;;;;;;20.93;50.79;99754.85;237178;1196;139365;-59
2022/08/11 06:12:16;;;;;;;6.10;2.90;;;;;;;21.03;50.63;99757.43;237322;1195;139267;-60
2022/08/11 06:17:44;;;;;;;8.40;3.00;;;;;;;21.14;50.39;99761.55;237537;1195;139311;-59
2022/08/11 06:22:56;;;;;;;4.70;2.80;;;;;;;21.22;50.35;99763.27;237243;1195;139439;-59
2022/08/11 06:27:59;;;;;;;9.00;3.30;;;;;;;21.27;50.25;99757.70;237148;1195;139336;-60
2022/08/11 06:33:06;;;;;;;7.60;2.90;;;;;;;21.35;50.17;99756.48;237153;1195;140079;-60
2022/08/11 06:38:15;;;;;;;8.20;2.60;;;;;;;21.42;50.07;99759.91;237216;1195;139595;-58
2022/08/11 06:43:24;;;;;;;6.40;2.20;;;;;;;21.52;50.03;99756.81;237172;1195;139107;-58
2022/08/11 06:48:30;;;;;;;7.50;2.30;;;;;;;21.61;49.81;99755.77;237164;1196;139785;-58
2022/08/11 06:53:35;;;;;;;5.70;2.00;;;;;;;21.70;49.64;99750.22;237407;1195;139412;-57
2022/08/11 07:04:08;;;;;;;3.70;2.00;;;;;;;21.84;49.22;99751.21;237223;1195;125583;-60
2022/08/11 07:31:08;;;;;;;4.30;1.80;;;;;;;22.26;48.63;99738.27;237111;1196;139382;-59
2022/08/11 07:36:12;;;;;;;6.50;2.20;;;;;;;22.30;48.50;99734.98;237375;1195;139407;-60
2022/08/11 07:41:18;;;;;;;8.80;2.40;;;;;;;22.37;48.39;99734.44;237366;1195;139126;-60
2022/08/11 08:18:59;;;;;;;4.50;2.80;;;;;;;23.04;47.64;99728.86;237403;1194;139158;-57
2022/08/11 08:24:03;;;;;;;4.50;2.60;;;;;;;23.18;47.37;99723.15;237275;1195;139514;-59
2022/08/11 08:34:29;;;;;;;47.20;32.10;;;;;;;23.34;46.99;99718.52;236969;1195;139868;-59
2022/08/11 08:39:36;;;;;;;4.10;2.60;;;;;;;23.42;46.68;99712.08;237028;1195;140528;-60
2022/08/11 08:44:46;;;;;;;4.90;2.20;;;;;;;23.49;46.32;99710.60;236882;1196;140346;-59
2022/08/11 08:49:57;;;;;;;5.90;1.80;;;;;;;23.52;46.08;99706.52;237038;1195;139748;-59
2022/08/11 08:55:04;;;;;;;2.50;1.60;;;;;;;23.58;45.96;99695.85;237028;1195;140170;-59
2022/08/11 09:00:08;;;;;;;4.60;1.40;;;;;;;23.66;45.69;99691.81;237213;1195;140521;-59
2022/08/11 09:05:17;;;;;;;4.80;1.70;;;;;;;23.70;45.57;99691.61;236930;1195;141367;-59
2022/08/11 09:10:20;;;;;;;4.50;1.50;;;;;;;23.74;45.37;99686.83;237226;1195;140331;-59
2022/08/11 09:15:24;;;;;;;4.40;1.90;;;;;;;23.75;45.22;99688.00;236572;1195;140271;-59
2022/08/11 09:20:33;;;;;;;3.50;1.50;;;;;;;23.80;45.05;99683.95;236902;1196;139192;-59
2022/08/11 09:31:00;;;;;;;8.50;4.90;;;;;;;23.87;44.64;99676.41;237176;1195;139945;-59
2022/08/11 09:40:27;;;;;;;9.40;2.90;;;;;;;23.96;44.50;99668.10;237083;1195;142687;-59
2022/08/11 09:41:27;;;;;;;8.10;2.30;;;;;;;24.01;44.15;99673.17;237103;1196;139446;-59
2022/08/11 09:46:53;;;;;;;4.10;2.00;;;;;;;24.16;43.81;99665.39;237017;1195;139954;-59
2022/08/11 09:51:59;;;;;;;6.20;1.60;;;;;;;24.33;43.42;99665.02;237224;1195;139311;-59
2022/08/11 10:02:30;;;;;;;7.60;1.60;;;;;;;24.55;42.86;99649.71;237024;1196;139406;-60
2022/08/11 10:07:33;;;;;;;4.50;1.60;;;;;;;24.61;42.56;99642.17;236823;1196;139745;-60
2022/08/11 10:12:46;;;;;;;3.70;1.70;;;;;;;24.77;42.62;99635.72;237081;1195;139745;-60
2022/08/11 10:29:01;;;;;;;3.60;1.30;;;;;;;24.97;41.59;99615.81;236847;1196;139523;-61
2022/08/11 10:34:15;;;;;;;3.50;1.50;;;;;;;25.14;41.32;99598.11;236851;1196;139896;-60
2022/08/11 10:39:22;;;;;;;2.90;1.30;;;;;;;25.48;41.25;99590.21;237475;1195;139788;-60
2022/08/11 10:44:25;;;;;;;6.60;1.30;;;;;;;25.58;40.78;99590.68;237605;1195;141417;-59
2022/08/11 10:49:29;;;;;;;1.80;1.20;;;;;;;25.37;40.33;99594.77;237044;1195;140945;-58
2022/08/11 10:59:56;;;;;;;6.40;1.20;;;;;;;24.76;40.93;99588.80;237444;1195;139584;-59
2022/08/11 11:05:14;;;;;;;3.30;1.20;;;;;;;24.52;41.31;99598.15;237465;1195;140387;-60
2022/08/11 11:10:17;;;;;;;5.70;0.80;;;;;;;24.38;41.71;99586.45;237038;1195;140237;-60
2022/08/11 11:20:56;;;;;;;2.30;1.00;;;;;;;24.69;41.95;99563.92;237112;1195;139782;-60
2022/08/11 11:26:31;;;;;;;2.20;1.20;;;;;;;25.21;41.61;99556.10;237391;1195;140506;-59
2022/08/11 11:31:49;;;;;;;36.30;2.30;;;;;;;25.59;41.19;99550.40;237073;1195;140079;-59
2022/08/11 11:36:57;;;;;;;3.10;1.10;;;;;;;25.71;40.54;99549.17;237096;1195;139671;-60
2022/08/11 11:42:09;;;;;;;2.40;1.10;;;;;;;25.55;40.16;99548.83;236950;1196;140034;-60
2022/08/11 11:47:13;;;;;;;6.10;1.20;;;;;;;25.34;40.00;99544.04;237232;1195;139864;-59
2022/08/11 11:52:18;;;;;;;5.20;1.40;;;;;;;25.45;40.35;99532.91;236934;1196;140111;-59
2022/08/11 12:03:07;;;;;;;1.70;1.10;;;;;;;25.74;39.41;99523.15;237361;1195;139629;-60
2022/08/11 12:08:14;;;;;;;3.40;1.00;;;;;;;25.62;39.13;99524.73;236968;1195;139899;-60
2022/08/11 12:18:44;;;;;;;7.60;1.50;;;;;;;25.43;39.11;99515.73;237073;1195;139823;-58
2022/08/11 12:29:11;;;;;;;4.40;1.20;;;;;;;25.28;39.48;99512.25;236888;1196;140732;-59
2022/08/11 12:34:16;;;;;;;8.60;2.40;;;;;;;25.22;39.50;99535.36;236843;1196;139487;-60
2022/08/11 12:45:26;;;;;;;6.40;1.70;;;;;;;24.98;40.20;99533.02;236840;1196;139749;-59
2022/08/11 12:45:26;;;;;;;10.70;1.80;;;;;;;24.63;41.41;99576.29;237358;1195;139865;-60
2022/08/11 13:06:41;;;;;;;6.50;1.60;;;;;;;23.49;43.51;99614.44;237297;1195;139679;-59
2022/08/11 13:17:22;;;;;;;3.60;1.60;;;;;;;22.99;45.01;99608.48;237040;1196;139175;-60
2022/08/11 13:22:48;;;;;;;6.50;1.70;;;;;;;22.78;45.86;99611.77;237235;1195;139250;-60
2022/08/11 13:27:54;;;;;;;5.60;2.00;;;;;;;22.57;46.66;99611.60;237276;1195;139840;-61
2022/08/11 13:33:04;;;;;;;8.90;2.60;;;;;;;22.36;47.33;99613.36;237074;1196;140042;-60
2022/08/11 13:38:12;;;;;;;7.30;2.10;;;;;;;22.17;48.06;99609.43;236856;1196;139687;-61
2022/08/11 13:43:23;;;;;;;8.20;1.70;;;;;;;22.03;48.65;99614.73;236358;1195;139885;-60
2022/08/11 13:48:27;;;;;;;3.90;1.60;;;;;;;21.94;49.31;99624.42;237253;1195;139317;-60
2022/08/11 13:53:31;;;;;;;2.80;1.60;;;;;;;21.91;49.83;99616.91;237237;1196;140565;-60
2022/08/11 13:58:35;;;;;;;5.50;1.60;;;;;;;21.97;50.23;99609.98;237023;1196;139538;-60
2022/08/11 14:03:42;;;;;;;7.30;2.20;;;;;;;22.14;50.55;99600.19;237410;1195;141152;-61
2022/08/11 14:09:08;;;;;;;7.90;1.60;;;;;;;22.28;50.73;99596.79;237199;1196;139840;-60
2022/08/11 14:14:20;;;;;;;4.30;1.60;;;;;;;22.31;50.67;99597.96;237034;1196;140924;-61
2022/08/11 14:19:27;;;;;;;4.90;2.00;;;;;;;22.35;51.10;99595.76;237187;1195;140008;-61
2022/08/11 14:24:31;;;;;;;5.20;1.70;;;;;;;22.61;51.53;99582.98;237003;1195;141660;-61
2022/08/11 14:29:37;;;;;;;3.70;1.50;;;;;;;23.03;51.44;99576.19;237348;1195;139955;-61
2022/08/11 14:34:52;;;;;;;3.90;1.20;;;;;;;23.47;50.81;99575.88;237014;1195;139595;-60
2022/08/11 14:40:00;;;;;;;5.20;1.50;;;;;;;23.76;50.03;99577.51;236900;1196;140518;-60
2022/08/11 14:50:52;;;;;;;7.90;5.40;;;;;;;23.92;49.62;99563.20;237224;1195;139449;-60
2022/08/11 15:06:43;;;;;;;5.90;2.10;;;;;;;23.58;49.33;99554.19;237080;1196;139912;-60
2022/08/11 15:17:32;;;;;;;3.50;2.40;;;;;;;23.25;49.65;99541.70;237145;1196;139264;-61
2022/08/11 15:39:07;;;;;;;2.40;1.40;;;;;;;23.20;49.87;99547.69;237179;1196;140387;-60
2022/08/11 15:50:06;;;;;;;3.50;1.40;;;;;;;23.34;49.83;99547.73;237202;1195;140626;-61
2022/08/11 15:55:16;;;;;;;3.90;1.50;;;;;;;23.43;49.64;99551.17;237198;1195;139528;-61
2022/08/11 16:05:43;;;;;;;3.20;1.30;;;;;;;23.56;49.51;99538.65;237237;1195;139290;-60
2022/08/11 16:10:56;;;;;;;7.90;1.50;;;;;;;23.67;49.33;99531.57;237240;1195;139493;-59
2022/08/11 16:16:13;;;;;;;3.10;1.40;;;;;;;23.77;49.14;99527.89;237086;1195;139536;-61
2022/08/11 16:21:23;;;;;;;4.70;1.30;;;;;;;23.81;48.76;99532.34;237106;1195;140886;-61
2022/08/11 16:26:41;;;;;;;6.60;3.40;;;;;;;23.87;48.77;99527.59;237180;1195;141081;-61
2022/08/11 16:32:19;;;;;;;7.20;2.20;;;;;;;23.86;48.88;99534.35;237168;1195;139310;-60
2022/08/11 16:48:13;;;;;;;2.10;1.40;;;;;;;23.46;49.82;99529.15;237478;1195;138802;-61
2022/08/11 16:53:38;;;;;;;3.90;1.50;;;;;;;23.26;50.14;99530.83;237360;1195;140406;-61
2022/08/11 16:59:16;;;;;;;3.20;1.30;;;;;;;23.03;50.46;99538.36;236928;1196;139791;-61
2022/08/11 17:16:05;;;;;;;4.20;1.60;;;;;;;22.18;51.98;99522.08;237099;1196;139358;-60
2022/08/11 17:21:29;;;;;;;3.80;1.90;;;;;;;21.99;52.56;99530.87;237120;1195;140045;-60
2022/08/11 17:26:57;;;;;;;4.10;1.40;;;;;;;21.90;53.05;99536.14;236835;1196;139148;-60
2022/08/11 17:37:27;;;;;;;2.20;1.60;;;;;;;21.97;53.72;99531.77;236889;1196;139349;-61
2022/08/11 18:04:08;;;;;;;6.30;3.00;;;;;;;21.63;54.23;99561.48;237333;1195;140330;-60
